sensor_id;sensor_type;location;lat;lon;timestamp;temperature;humidity
4813;DHT22;2420;51.202;8.698;2023-06-22T00:01:49;19.60;1.00
4813;DHT22;2420;51.202;8.698;2023-06-22T00:04:15;19.60;1.00
4813;DHT22;2420;51.202;8.698;2023-06-22T00:06:40;19.50;1.00
4813;DHT22;2420;51.202;8.698;2023-06-22T00:09:06;19.50;1.00
4813;DHT22;2420;51.202;8.698;2023-06-22T00:11:32;19.50;1.00
4813;DHT22;2420;51.202;8.698;2023-06-22T00:13:59;19.60;1.00
4813;DHT22;2420;51.202;8.698;2023-06-22T00:16:24;19.60;1.00
4813;DHT22;2420;51.202;8.698;2023-06-22T00:18:50;19.50;1.00
4813;DHT22;2420;51.202;8.698;2023-06-22T00:21:15;19.50;1.00
4813;DHT22;2420;51.202;8.698;2023-06-22T00:23:41;19.40;1.00
4813;DHT22;2420;51.202;8.698;2023-06-22T00:26:07;19.40;1.00
4813;DHT22;2420;51.202;8.698;2023-06-22T00:28:34;19.40;1.00
4813;DHT22;2420;51.202;8.698;2023-06-22T00:30:59;19.40;1.00
4813;DHT22;2420;51.202;8.698;2023-06-22T00:33:26;19.40;1.00
4813;DHT22;2420;51.202;8.698;2023-06-22T00:35:53;19.40;1.00
4813;DHT22;2420;51.202;8.698;2023-06-22T00:38:19;19.40;1.00
4813;DHT22;2420;51.202;8.698;2023-06-22T00:40:45;19.40;1.00
4813;DHT22;2420;51.202;8.698;2023-06-22T00:43:10;19.40;1.00
4813;DHT22;2420;51.202;8.698;2023-06-22T00:45:36;19.40;1.00
4813;DHT22;2420;51.202;8.698;2023-06-22T00:48:02;19.30;1.00
4813;DHT22;2420;51.202;8.698;2023-06-22T00:50:30;19.30;1.00
4813;DHT22;2420;51.202;8.698;2023-06-22T00:53:00;19.30;1.00
4813;DHT22;2420;51.202;8.698;2023-06-22T00:55:26;19.30;1.00
4813;DHT22;2420;51.202;8.698;2023-06-22T00:57:53;19.30;1.00
4813;DHT22;2420;51.202;8.698;2023-06-22T01:00:26;19.30;1.00
4813;DHT22;2420;51.202;8.698;2023-06-22T01:02:52;19.30;1.00
4813;DHT22;2420;51.202;8.698;2023-06-22T01:05:20;19.30;1.00
4813;DHT22;2420;51.202;8.698;2023-06-22T01:10:49;19.30;1.00
4813;DHT22;2420;51.202;8.698;2023-06-22T01:13:32;19.30;1.00
4813;DHT22;2420;51.202;8.698;2023-06-22T01:16:03;19.30;1.00
4813;DHT22;2420;51.202;8.698;2023-06-22T01:18:31;19.30;1.00
4813;DHT22;2420;51.202;8.698;2023-06-22T01:20:58;19.40;1.00
4813;DHT22;2420;51.202;8.698;2023-06-22T01:26:25;19.40;1.00
4813;DHT22;2420;51.202;8.698;2023-06-22T01:28:55;19.50;1.00
4813;DHT22;2420;51.202;8.698;2023-06-22T01:31:25;19.50;1.00
4813;DHT22;2420;51.202;8.698;2023-06-22T01:33:57;19.50;1.00
4813;DHT22;2420;51.202;8.698;2023-06-22T01:36:24;19.50;1.00
4813;DHT22;2420;51.202;8.698;2023-06-22T01:38:52;19.50;1.00
4813;DHT22;2420;51.202;8.698;2023-06-22T01:41:18;19.50;1.00
4813;DHT22;2420;51.202;8.698;2023-06-22T01:43:45;19.60;1.00
4813;DHT22;2420;51.202;8.698;2023-06-22T01:46:11;19.60;1.00
4813;DHT22;2420;51.202;8.698;2023-06-22T01:48:38;19.60;1.00
4813;DHT22;2420;51.202;8.698;2023-06-22T01:51:04;19.60;1.00
4813;DHT22;2420;51.202;8.698;2023-06-22T01:53:30;19.60;1.00
4813;DHT22;2420;51.202;8.698;2023-06-22T01:55:56;19.60;1.00
4813;DHT22;2420;51.202;8.698;2023-06-22T01:58:26;19.60;1.00
4813;DHT22;2420;51.202;8.698;2023-06-22T02:01:12;19.70;1.00
4813;DHT22;2420;51.202;8.698;2023-06-22T02:03:46;19.60;1.00
4813;DHT22;2420;51.202;8.698;2023-06-22T02:06:17;19.60;1.00
4813;DHT22;2420;51.202;8.698;2023-06-22T02:08:51;19.60;1.00
4813;DHT22;2420;51.202;8.698;2023-06-22T02:11:20;19.60;1.00
4813;DHT22;2420;51.202;8.698;2023-06-22T02:13:47;19.60;1.00
4813;DHT22;2420;51.202;8.698;2023-06-22T02:16:14;19.60;1.00
4813;DHT22;2420;51.202;8.698;2023-06-22T02:18:51;19.60;1.00
4813;DHT22;2420;51.202;8.698;2023-06-22T02:21:20;19.60;1.00
4813;DHT22;2420;51.202;8.698;2023-06-22T02:23:46;19.60;1.00
4813;DHT22;2420;51.202;8.698;2023-06-22T02:26:12;19.60;1.00
4813;DHT22;2420;51.202;8.698;2023-06-22T02:28:38;19.60;1.00
4813;DHT22;2420;51.202;8.698;2023-06-22T02:31:04;19.60;1.00
4813;DHT22;2420;51.202;8.698;2023-06-22T02:33:29;19.60;1.00
4813;DHT22;2420;51.202;8.698;2023-06-22T02:35:55;19.60;1.00
4813;DHT22;2420;51.202;8.698;2023-06-22T02:38:21;19.60;1.00
4813;DHT22;2420;51.202;8.698;2023-06-22T02:40:48;19.60;1.00
4813;DHT22;2420;51.202;8.698;2023-06-22T02:43:14;19.60;1.00
4813;DHT22;2420;51.202;8.698;2023-06-22T02:45:39;19.60;1.00
4813;DHT22;2420;51.202;8.698;2023-06-22T02:48:05;19.60;1.00
4813;DHT22;2420;51.202;8.698;2023-06-22T02:50:31;19.60;1.00
4813;DHT22;2420;51.202;8.698;2023-06-22T02:52:56;19.60;1.00
4813;DHT22;2420;51.202;8.698;2023-06-22T02:55:23;19.60;1.00
4813;DHT22;2420;51.202;8.698;2023-06-22T02:57:49;19.60;1.00
4813;DHT22;2420;51.202;8.698;2023-06-22T03:00:18;19.60;1.00
4813;DHT22;2420;51.202;8.698;2023-06-22T03:02:45;19.60;1.00
4813;DHT22;2420;51.202;8.698;2023-06-22T03:05:11;19.60;1.00
4813;DHT22;2420;51.202;8.698;2023-06-22T03:07:42;19.60;1.00
4813;DHT22;2420;51.202;8.698;2023-06-22T03:10:09;19.60;1.00
4813;DHT22;2420;51.202;8.698;2023-06-22T03:12:35;19.60;1.00
4813;DHT22;2420;51.202;8.698;2023-06-22T03:15:00;19.60;1.00
4813;DHT22;2420;51.202;8.698;2023-06-22T03:17:26;19.60;1.00
4813;DHT22;2420;51.202;8.698;2023-06-22T03:19:51;19.60;1.00
4813;DHT22;2420;51.202;8.698;2023-06-22T03:22:17;19.60;1.00
4813;DHT22;2420;51.202;8.698;2023-06-22T03:24:42;19.60;1.00
4813;DHT22;2420;51.202;8.698;2023-06-22T03:27:08;19.60;1.00
4813;DHT22;2420;51.202;8.698;2023-06-22T03:29:33;19.60;1.00
4813;DHT22;2420;51.202;8.698;2023-06-22T03:32:02;19.60;1.00
4813;DHT22;2420;51.202;8.698;2023-06-22T03:34:30;19.60;1.00
4813;DHT22;2420;51.202;8.698;2023-06-22T03:36:58;19.60;1.00
4813;DHT22;2420;51.202;8.698;2023-06-22T03:39:24;19.60;1.00
4813;DHT22;2420;51.202;8.698;2023-06-22T03:41:49;19.60;1.00
4813;DHT22;2420;51.202;8.698;2023-06-22T03:44:15;19.70;1.00
4813;DHT22;2420;51.202;8.698;2023-06-22T03:46:40;19.70;1.00
4813;DHT22;2420;51.202;8.698;2023-06-22T03:49:06;19.70;1.00
4813;DHT22;2420;51.202;8.698;2023-06-22T03:51:32;19.70;1.00
4813;DHT22;2420;51.202;8.698;2023-06-22T03:53:58;19.70;1.00
4813;DHT22;2420;51.202;8.698;2023-06-22T03:56:24;19.60;1.00
4813;DHT22;2420;51.202;8.698;2023-06-22T03:58:49;19.70;1.00
4813;DHT22;2420;51.202;8.698;2023-06-22T04:01:15;19.60;1.00
4813;DHT22;2420;51.202;8.698;2023-06-22T04:03:42;19.70;1.00
4813;DHT22;2420;51.202;8.698;2023-06-22T04:06:08;19.60;1.00
4813;DHT22;2420;51.202;8.698;2023-06-22T04:08:33;19.60;1.00
4813;DHT22;2420;51.202;8.698;2023-06-22T04:10:59;19.60;1.00
4813;DHT22;2420;51.202;8.698;2023-06-22T04:13:25;19.60;1.00
4813;DHT22;2420;51.202;8.698;2023-06-22T04:15:50;19.60;1.00
4813;DHT22;2420;51.202;8.698;2023-06-22T04:18:16;19.70;1.00
4813;DHT22;2420;51.202;8.698;2023-06-22T04:20:41;19.60;1.00
4813;DHT22;2420;51.202;8.698;2023-06-22T04:23:07;19.70;1.00
4813;DHT22;2420;51.202;8.698;2023-06-22T04:25:32;19.70;1.00
4813;DHT22;2420;51.202;8.698;2023-06-22T04:27:58;19.70;1.00
4813;DHT22;2420;51.202;8.698;2023-06-22T04:30:23;19.70;1.00
4813;DHT22;2420;51.202;8.698;2023-06-22T04:32:49;19.70;1.00
4813;DHT22;2420;51.202;8.698;2023-06-22T04:35:22;19.80;1.00
4813;DHT22;2420;51.202;8.698;2023-06-22T04:37:51;19.80;1.00
4813;DHT22;2420;51.202;8.698;2023-06-22T04:40:21;19.70;1.00
4813;DHT22;2420;51.202;8.698;2023-06-22T04:42:47;19.80;1.00
4813;DHT22;2420;51.202;8.698;2023-06-22T04:45:17;19.80;1.00
4813;DHT22;2420;51.202;8.698;2023-06-22T04:47:43;19.80;1.00
4813;DHT22;2420;51.202;8.698;2023-06-22T04:50:12;19.80;1.00
4813;DHT22;2420;51.202;8.698;2023-06-22T04:52:38;19.80;1.00
4813;DHT22;2420;51.202;8.698;2023-06-22T04:55:04;19.90;1.00
4813;DHT22;2420;51.202;8.698;2023-06-22T04:57:29;19.90;1.00
4813;DHT22;2420;51.202;8.698;2023-06-22T05:00:01;19.80;1.00
4813;DHT22;2420;51.202;8.698;2023-06-22T05:02:41;19.80;1.00
4813;DHT22;2420;51.202;8.698;2023-06-22T05:05:07;19.80;1.00
4813;DHT22;2420;51.202;8.698;2023-06-22T05:07:36;19.80;1.00
4813;DHT22;2420;51.202;8.698;2023-06-22T05:10:05;19.80;1.00
4813;DHT22;2420;51.202;8.698;2023-06-22T05:12:30;19.80;1.00
4813;DHT22;2420;51.202;8.698;2023-06-22T05:14:56;19.90;1.00
4813;DHT22;2420;51.202;8.698;2023-06-22T05:17:22;19.90;1.00
4813;DHT22;2420;51.202;8.698;2023-06-22T05:19:47;19.90;1.00
4813;DHT22;2420;51.202;8.698;2023-06-22T05:22:16;19.90;1.00
4813;DHT22;2420;51.202;8.698;2023-06-22T05:24:42;19.90;1.00
4813;DHT22;2420;51.202;8.698;2023-06-22T05:27:09;19.80;1.00
4813;DHT22;2420;51.202;8.698;2023-06-22T05:29:34;19.80;1.00
4813;DHT22;2420;51.202;8.698;2023-06-22T05:32:00;19.80;1.00
4813;DHT22;2420;51.202;8.698;2023-06-22T05:34:26;19.80;1.00
4813;DHT22;2420;51.202;8.698;2023-06-22T05:36:51;19.80;1.00
4813;DHT22;2420;51.202;8.698;2023-06-22T05:39:17;19.80;1.00
4813;DHT22;2420;51.202;8.698;2023-06-22T05:41:43;19.80;1.00
4813;DHT22;2420;51.202;8.698;2023-06-22T05:44:09;19.80;1.00
4813;DHT22;2420;51.202;8.698;2023-06-22T05:46:35;19.90;1.00
4813;DHT22;2420;51.202;8.698;2023-06-22T05:49:00;20.00;1.00
4813;DHT22;2420;51.202;8.698;2023-06-22T05:51:26;19.90;1.00
4813;DHT22;2420;51.202;8.698;2023-06-22T05:53:51;20.00;1.00
4813;DHT22;2420;51.202;8.698;2023-06-22T05:56:17;20.00;1.00
4813;DHT22;2420;51.202;8.698;2023-06-22T05:58:43;20.10;1.00
4813;DHT22;2420;51.202;8.698;2023-06-22T06:01:08;20.10;1.00
4813;DHT22;2420;51.202;8.698;2023-06-22T06:03:34;20.20;1.00
4813;DHT22;2420;51.202;8.698;2023-06-22T06:05:59;20.20;1.00
4813;DHT22;2420;51.202;8.698;2023-06-22T06:08:27;20.30;1.00
4813;DHT22;2420;51.202;8.698;2023-06-22T06:10:53;20.30;1.00
4813;DHT22;2420;51.202;8.698;2023-06-22T06:13:20;20.30;1.00
4813;DHT22;2420;51.202;8.698;2023-06-22T06:15:45;20.40;1.00
4813;DHT22;2420;51.202;8.698;2023-06-22T06:18:11;20.30;1.00
4813;DHT22;2420;51.202;8.698;2023-06-22T06:20:37;20.30;1.00
4813;DHT22;2420;51.202;8.698;2023-06-22T06:23:02;20.40;1.00
4813;DHT22;2420;51.202;8.698;2023-06-22T06:25:28;20.40;1.00
4813;DHT22;2420;51.202;8.698;2023-06-22T06:27:54;20.40;1.00
4813;DHT22;2420;51.202;8.698;2023-06-22T06:30:20;20.60;1.00
4813;DHT22;2420;51.202;8.698;2023-06-22T06:32:47;20.60;1.00
4813;DHT22;2420;51.202;8.698;2023-06-22T06:35:14;20.70;1.00
4813;DHT22;2420;51.202;8.698;2023-06-22T06:37:43;20.80;1.00
4813;DHT22;2420;51.202;8.698;2023-06-22T06:40:10;20.70;1.00
4813;DHT22;2420;51.202;8.698;2023-06-22T06:42:41;20.90;1.00
4813;DHT22;2420;51.202;8.698;2023-06-22T06:45:18;21.10;1.00
4813;DHT22;2420;51.202;8.698;2023-06-22T06:47:43;21.50;1.00
4813;DHT22;2420;51.202;8.698;2023-06-22T06:50:10;21.70;1.00
4813;DHT22;2420;51.202;8.698;2023-06-22T06:52:36;21.80;1.00
4813;DHT22;2420;51.202;8.698;2023-06-22T06:55:01;22.10;1.00
4813;DHT22;2420;51.202;8.698;2023-06-22T06:57:29;22.20;1.00
4813;DHT22;2420;51.202;8.698;2023-06-22T06:59:56;22.30;1.00
4813;DHT22;2420;51.202;8.698;2023-06-22T07:02:22;22.10;1.00
4813;DHT22;2420;51.202;8.698;2023-06-22T07:04:48;21.90;1.00
4813;DHT22;2420;51.202;8.698;2023-06-22T07:07:14;21.90;1.00
4813;DHT22;2420;51.202;8.698;2023-06-22T07:09:40;21.80;1.00
4813;DHT22;2420;51.202;8.698;2023-06-22T07:12:06;21.90;1.00
4813;DHT22;2420;51.202;8.698;2023-06-22T07:14:31;21.90;1.00
4813;DHT22;2420;51.202;8.698;2023-06-22T07:16:57;22.10;1.00
4813;DHT22;2420;51.202;8.698;2023-06-22T07:19:27;22.10;1.00
4813;DHT22;2420;51.202;8.698;2023-06-22T07:21:56;22.20;1.00
4813;DHT22;2420;51.202;8.698;2023-06-22T07:24:22;22.40;1.00
4813;DHT22;2420;51.202;8.698;2023-06-22T07:26:49;22.50;1.00
4813;DHT22;2420;51.202;8.698;2023-06-22T07:29:19;22.70;1.00
4813;DHT22;2420;51.202;8.698;2023-06-22T07:31:46;22.80;1.00
4813;DHT22;2420;51.202;8.698;2023-06-22T07:34:12;22.80;1.00
4813;DHT22;2420;51.202;8.698;2023-06-22T07:36:37;22.70;1.00
4813;DHT22;2420;51.202;8.698;2023-06-22T07:39:03;22.60;1.00
4813;DHT22;2420;51.202;8.698;2023-06-22T07:41:29;22.70;1.00
4813;DHT22;2420;51.202;8.698;2023-06-22T07:43:55;22.70;1.00
4813;DHT22;2420;51.202;8.698;2023-06-22T07:46:21;22.70;1.00
4813;DHT22;2420;51.202;8.698;2023-06-22T07:48:47;23.00;1.00
4813;DHT22;2420;51.202;8.698;2023-06-22T07:51:12;22.90;1.00
4813;DHT22;2420;51.202;8.698;2023-06-22T07:53:41;22.80;1.00
4813;DHT22;2420;51.202;8.698;2023-06-22T07:56:07;22.70;1.00
4813;DHT22;2420;51.202;8.698;2023-06-22T07:58:35;22.50;1.00
4813;DHT22;2420;51.202;8.698;2023-06-22T08:01:01;22.70;1.00
4813;DHT22;2420;51.202;8.698;2023-06-22T08:03:26;22.90;1.00
4813;DHT22;2420;51.202;8.698;2023-06-22T08:05:52;23.20;1.00
4813;DHT22;2420;51.202;8.698;2023-06-22T08:08:17;23.50;1.00
4813;DHT22;2420;51.202;8.698;2023-06-22T08:10:43;23.50;1.00
4813;DHT22;2420;51.202;8.698;2023-06-22T08:13:09;23.60;1.00
4813;DHT22;2420;51.202;8.698;2023-06-22T08:15:35;23.80;1.00
4813;DHT22;2420;51.202;8.698;2023-06-22T08:18:01;24.10;1.00
4813;DHT22;2420;51.202;8.698;2023-06-22T08:20:26;24.00;1.00
4813;DHT22;2420;51.202;8.698;2023-06-22T08:22:55;23.90;1.00
4813;DHT22;2420;51.202;8.698;2023-06-22T08:25:23;24.00;1.00
4813;DHT22;2420;51.202;8.698;2023-06-22T08:27:49;24.10;1.00
4813;DHT22;2420;51.202;8.698;2023-06-22T08:30:15;24.40;1.00
4813;DHT22;2420;51.202;8.698;2023-06-22T08:32:41;24.10;1.00
4813;DHT22;2420;51.202;8.698;2023-06-22T08:35:06;24.10;1.00
4813;DHT22;2420;51.202;8.698;2023-06-22T08:37:33;23.90;1.00
4813;DHT22;2420;51.202;8.698;2023-06-22T08:40:02;24.00;1.00
4813;DHT22;2420;51.202;8.698;2023-06-22T08:42:29;24.10;1.00
4813;DHT22;2420;51.202;8.698;2023-06-22T08:44:55;24.30;1.00
4813;DHT22;2420;51.202;8.698;2023-06-22T08:47:21;24.50;1.00
4813;DHT22;2420;51.202;8.698;2023-06-22T08:49:46;24.40;1.00
4813;DHT22;2420;51.202;8.698;2023-06-22T08:52:12;24.50;1.00
4813;DHT22;2420;51.202;8.698;2023-06-22T08:54:38;24.60;1.00
4813;DHT22;2420;51.202;8.698;2023-06-22T08:57:04;24.30;1.00
4813;DHT22;2420;51.202;8.698;2023-06-22T08:59:30;24.30;1.00
4813;DHT22;2420;51.202;8.698;2023-06-22T09:01:55;24.30;1.00
4813;DHT22;2420;51.202;8.698;2023-06-22T09:04:21;24.30;1.00
4813;DHT22;2420;51.202;8.698;2023-06-22T09:06:48;24.20;1.00
4813;DHT22;2420;51.202;8.698;2023-06-22T09:09:16;24.00;1.00
4813;DHT22;2420;51.202;8.698;2023-06-22T09:11:42;24.30;1.00
4813;DHT22;2420;51.202;8.698;2023-06-22T09:14:08;24.60;1.00
4813;DHT22;2420;51.202;8.698;2023-06-22T09:16:34;24.90;1.00
4813;DHT22;2420;51.202;8.698;2023-06-22T09:18:59;24.90;1.00
4813;DHT22;2420;51.202;8.698;2023-06-22T09:21:25;24.90;1.00
4813;DHT22;2420;51.202;8.698;2023-06-22T09:23:50;24.90;1.00
4813;DHT22;2420;51.202;8.698;2023-06-22T09:26:20;24.90;1.00
4813;DHT22;2420;51.202;8.698;2023-06-22T09:28:46;24.80;1.00
4813;DHT22;2420;51.202;8.698;2023-06-22T09:31:12;25.00;1.00
4813;DHT22;2420;51.202;8.698;2023-06-22T09:33:39;25.10;1.00
4813;DHT22;2420;51.202;8.698;2023-06-22T09:36:06;25.20;1.00
4813;DHT22;2420;51.202;8.698;2023-06-22T09:38:35;25.40;1.00
4813;DHT22;2420;51.202;8.698;2023-06-22T09:41:00;25.60;1.00
4813;DHT22;2420;51.202;8.698;2023-06-22T09:43:27;25.40;1.00
4813;DHT22;2420;51.202;8.698;2023-06-22T09:45:52;25.70;1.00
4813;DHT22;2420;51.202;8.698;2023-06-22T09:48:18;25.30;1.00
4813;DHT22;2420;51.202;8.698;2023-06-22T09:50:43;25.40;1.00
4813;DHT22;2420;51.202;8.698;2023-06-22T09:53:09;25.60;1.00
4813;DHT22;2420;51.202;8.698;2023-06-22T09:55:35;25.60;1.00
4813;DHT22;2420;51.202;8.698;2023-06-22T09:58:00;25.50;1.00
4813;DHT22;2420;51.202;8.698;2023-06-22T10:00:26;25.30;1.00
4813;DHT22;2420;51.202;8.698;2023-06-22T10:02:52;25.30;1.00
4813;DHT22;2420;51.202;8.698;2023-06-22T10:05:18;25.30;1.00
4813;DHT22;2420;51.202;8.698;2023-06-22T10:07:43;25.40;1.00
4813;DHT22;2420;51.202;8.698;2023-06-22T10:10:10;25.60;1.00
4813;DHT22;2420;51.202;8.698;2023-06-22T10:12:36;25.80;1.00
4813;DHT22;2420;51.202;8.698;2023-06-22T10:15:02;25.70;1.00
4813;DHT22;2420;51.202;8.698;2023-06-22T10:17:28;25.50;1.00
4813;DHT22;2420;51.202;8.698;2023-06-22T10:19:54;25.40;1.00
4813;DHT22;2420;51.202;8.698;2023-06-22T10:22:19;25.60;1.00
4813;DHT22;2420;51.202;8.698;2023-06-22T10:24:45;25.70;1.00
4813;DHT22;2420;51.202;8.698;2023-06-22T10:27:11;25.50;1.00
4813;DHT22;2420;51.202;8.698;2023-06-22T10:29:37;25.60;1.00
4813;DHT22;2420;51.202;8.698;2023-06-22T10:32:03;25.50;1.00
4813;DHT22;2420;51.202;8.698;2023-06-22T10:34:29;25.70;1.00
4813;DHT22;2420;51.202;8.698;2023-06-22T10:36:54;26.00;1.00
4813;DHT22;2420;51.202;8.698;2023-06-22T10:39:20;25.80;1.00
4813;DHT22;2420;51.202;8.698;2023-06-22T10:41:46;25.70;1.00
4813;DHT22;2420;51.202;8.698;2023-06-22T10:44:11;25.70;1.00
4813;DHT22;2420;51.202;8.698;2023-06-22T10:46:37;26.10;1.00
4813;DHT22;2420;51.202;8.698;2023-06-22T10:49:03;26.00;1.00
4813;DHT22;2420;51.202;8.698;2023-06-22T10:51:28;26.00;1.00
4813;DHT22;2420;51.202;8.698;2023-06-22T10:53:54;25.80;1.00
4813;DHT22;2420;51.202;8.698;2023-06-22T10:56:20;25.90;1.00
4813;DHT22;2420;51.202;8.698;2023-06-22T10:58:46;26.00;1.00
4813;DHT22;2420;51.202;8.698;2023-06-22T11:01:11;26.10;1.00
4813;DHT22;2420;51.202;8.698;2023-06-22T11:03:37;26.20;1.00
4813;DHT22;2420;51.202;8.698;2023-06-22T11:06:03;25.90;1.00
4813;DHT22;2420;51.202;8.698;2023-06-22T11:08:28;26.00;1.00
4813;DHT22;2420;51.202;8.698;2023-06-22T11:10:54;26.10;1.00
4813;DHT22;2420;51.202;8.698;2023-06-22T11:13:19;26.00;1.00
4813;DHT22;2420;51.202;8.698;2023-06-22T11:15:45;26.30;1.00
4813;DHT22;2420;51.202;8.698;2023-06-22T11:18:10;26.50;1.00
4813;DHT22;2420;51.202;8.698;2023-06-22T11:20:36;26.40;1.00
4813;DHT22;2420;51.202;8.698;2023-06-22T11:23:04;26.40;1.00
4813;DHT22;2420;51.202;8.698;2023-06-22T11:25:31;26.30;1.00
4813;DHT22;2420;51.202;8.698;2023-06-22T11:27:57;26.40;1.00
4813;DHT22;2420;51.202;8.698;2023-06-22T11:30:22;26.10;1.00
4813;DHT22;2420;51.202;8.698;2023-06-22T11:32:48;26.10;1.00
4813;DHT22;2420;51.202;8.698;2023-06-22T11:35:14;25.90;1.00
4813;DHT22;2420;51.202;8.698;2023-06-22T11:37:39;25.80;1.00
4813;DHT22;2420;51.202;8.698;2023-06-22T11:40:05;25.70;1.00
4813;DHT22;2420;51.202;8.698;2023-06-22T11:42:34;25.50;1.00
4813;DHT22;2420;51.202;8.698;2023-06-22T11:45:00;25.30;1.00
4813;DHT22;2420;51.202;8.698;2023-06-22T11:47:25;25.20;1.00
4813;DHT22;2420;51.202;8.698;2023-06-22T11:49:51;25.10;1.00
4813;DHT22;2420;51.202;8.698;2023-06-22T11:52:16;25.10;1.00
4813;DHT22;2420;51.202;8.698;2023-06-22T11:54:43;25.10;1.00
4813;DHT22;2420;51.202;8.698;2023-06-22T11:57:08;25.10;1.00
4813;DHT22;2420;51.202;8.698;2023-06-22T11:59:34;25.10;1.00
4813;DHT22;2420;51.202;8.698;2023-06-22T12:02:00;25.00;1.00
4813;DHT22;2420;51.202;8.698;2023-06-22T12:04:25;25.00;1.00
4813;DHT22;2420;51.202;8.698;2023-06-22T12:06:51;25.00;1.00
4813;DHT22;2420;51.202;8.698;2023-06-22T12:09:16;24.90;1.00
4813;DHT22;2420;51.202;8.698;2023-06-22T12:11:42;24.90;1.00
4813;DHT22;2420;51.202;8.698;2023-06-22T12:14:07;24.90;1.00
4813;DHT22;2420;51.202;8.698;2023-06-22T12:16:33;25.00;1.00
4813;DHT22;2420;51.202;8.698;2023-06-22T12:18:59;25.10;1.00
4813;DHT22;2420;51.202;8.698;2023-06-22T12:21:24;25.20;1.00
4813;DHT22;2420;51.202;8.698;2023-06-22T12:23:50;25.40;1.00
4813;DHT22;2420;51.202;8.698;2023-06-22T12:26:16;25.50;1.00
4813;DHT22;2420;51.202;8.698;2023-06-22T12:28:41;25.70;1.00
4813;DHT22;2420;51.202;8.698;2023-06-22T12:31:07;25.80;1.00
4813;DHT22;2420;51.202;8.698;2023-06-22T12:33:32;26.10;1.00
4813;DHT22;2420;51.202;8.698;2023-06-22T12:35:58;26.10;1.00
4813;DHT22;2420;51.202;8.698;2023-06-22T12:38:23;26.20;1.00
4813;DHT22;2420;51.202;8.698;2023-06-22T12:40:52;26.20;1.00
4813;DHT22;2420;51.202;8.698;2023-06-22T12:43:18;26.20;1.00
4813;DHT22;2420;51.202;8.698;2023-06-22T12:45:43;26.30;1.00
4813;DHT22;2420;51.202;8.698;2023-06-22T12:48:09;26.40;1.00
4813;DHT22;2420;51.202;8.698;2023-06-22T12:50:35;26.50;1.00
4813;DHT22;2420;51.202;8.698;2023-06-22T12:53:00;26.80;1.00
4813;DHT22;2420;51.202;8.698;2023-06-22T12:55:28;27.00;1.00
4813;DHT22;2420;51.202;8.698;2023-06-22T12:57:53;26.80;1.00
4813;DHT22;2420;51.202;8.698;2023-06-22T13:00:19;26.50;1.00
4813;DHT22;2420;51.202;8.698;2023-06-22T13:02:45;26.40;1.00
4813;DHT22;2420;51.202;8.698;2023-06-22T13:05:11;26.20;1.00
4813;DHT22;2420;51.202;8.698;2023-06-22T13:07:36;26.10;1.00
4813;DHT22;2420;51.202;8.698;2023-06-22T13:10:02;26.10;1.00
4813;DHT22;2420;51.202;8.698;2023-06-22T13:12:28;26.10;1.00
4813;DHT22;2420;51.202;8.698;2023-06-22T13:14:53;26.10;1.00
4813;DHT22;2420;51.202;8.698;2023-06-22T13:17:20;26.10;1.00
4813;DHT22;2420;51.202;8.698;2023-06-22T13:19:46;25.90;1.00
4813;DHT22;2420;51.202;8.698;2023-06-22T13:22:34;25.80;1.00
4813;DHT22;2420;51.202;8.698;2023-06-22T13:25:06;25.60;1.00
4813;DHT22;2420;51.202;8.698;2023-06-22T13:27:32;25.50;1.00
4813;DHT22;2420;51.202;8.698;2023-06-22T13:29:58;25.40;1.00
4813;DHT22;2420;51.202;8.698;2023-06-22T13:32:24;25.20;1.00
4813;DHT22;2420;51.202;8.698;2023-06-22T13:34:50;25.10;1.00
4813;DHT22;2420;51.202;8.698;2023-06-22T13:37:16;24.90;1.00
4813;DHT22;2420;51.202;8.698;2023-06-22T13:39:42;24.20;1.00
4813;DHT22;2420;51.202;8.698;2023-06-22T13:42:07;23.30;1.00
4813;DHT22;2420;51.202;8.698;2023-06-22T13:44:33;20.20;1.00
4813;DHT22;2420;51.202;8.698;2023-06-22T13:46:59;19.40;1.00
4813;DHT22;2420;51.202;8.698;2023-06-22T13:49:24;19.20;1.00
4813;DHT22;2420;51.202;8.698;2023-06-22T13:51:50;19.20;1.00
4813;DHT22;2420;51.202;8.698;2023-06-22T13:54:16;19.20;1.00
4813;DHT22;2420;51.202;8.698;2023-06-22T13:56:42;19.10;1.00
4813;DHT22;2420;51.202;8.698;2023-06-22T13:59:07;19.00;1.00
4813;DHT22;2420;51.202;8.698;2023-06-22T14:01:35;19.10;1.00
4813;DHT22;2420;51.202;8.698;2023-06-22T14:04:01;19.10;1.00
4813;DHT22;2420;51.202;8.698;2023-06-22T14:06:29;19.10;1.00
4813;DHT22;2420;51.202;8.698;2023-06-22T14:08:55;19.10;1.00
4813;DHT22;2420;51.202;8.698;2023-06-22T14:11:20;19.20;1.00
4813;DHT22;2420;51.202;8.698;2023-06-22T14:13:46;19.10;1.00
4813;DHT22;2420;51.202;8.698;2023-06-22T14:16:12;19.10;1.00
4813;DHT22;2420;51.202;8.698;2023-06-22T14:18:37;18.80;1.00
4813;DHT22;2420;51.202;8.698;2023-06-22T14:21:03;18.70;1.00
4813;DHT22;2420;51.202;8.698;2023-06-22T14:23:28;18.80;1.00
4813;DHT22;2420;51.202;8.698;2023-06-22T14:25:54;18.80;1.00
4813;DHT22;2420;51.202;8.698;2023-06-22T14:28:19;18.80;1.00
4813;DHT22;2420;51.202;8.698;2023-06-22T14:30:45;18.90;1.00
4813;DHT22;2420;51.202;8.698;2023-06-22T14:33:11;18.90;1.00
4813;DHT22;2420;51.202;8.698;2023-06-22T14:35:37;19.00;1.00
4813;DHT22;2420;51.202;8.698;2023-06-22T14:38:02;19.10;1.00
4813;DHT22;2420;51.202;8.698;2023-06-22T14:40:28;19.10;1.00
4813;DHT22;2420;51.202;8.698;2023-06-22T14:42:54;19.30;1.00
4813;DHT22;2420;51.202;8.698;2023-06-22T14:45:24;19.20;1.00
4813;DHT22;2420;51.202;8.698;2023-06-22T14:47:50;19.40;1.00
4813;DHT22;2420;51.202;8.698;2023-06-22T14:50:16;19.50;1.00
4813;DHT22;2420;51.202;8.698;2023-06-22T14:52:42;19.50;1.00
4813;DHT22;2420;51.202;8.698;2023-06-22T14:55:08;19.50;1.00
4813;DHT22;2420;51.202;8.698;2023-06-22T14:57:33;19.40;1.00
4813;DHT22;2420;51.202;8.698;2023-06-22T14:59:59;19.50;1.00
4813;DHT22;2420;51.202;8.698;2023-06-22T15:02:26;19.70;1.00
4813;DHT22;2420;51.202;8.698;2023-06-22T15:04:55;20.00;1.00
4813;DHT22;2420;51.202;8.698;2023-06-22T15:07:21;20.30;1.00
4813;DHT22;2420;51.202;8.698;2023-06-22T15:09:46;20.50;1.00
4813;DHT22;2420;51.202;8.698;2023-06-22T15:12:12;20.80;1.00
4813;DHT22;2420;51.202;8.698;2023-06-22T15:14:41;20.90;1.00
4813;DHT22;2420;51.202;8.698;2023-06-22T15:17:07;21.00;1.00
4813;DHT22;2420;51.202;8.698;2023-06-22T15:19:36;21.10;1.00
4813;DHT22;2420;51.202;8.698;2023-06-22T15:22:06;21.10;1.00
4813;DHT22;2420;51.202;8.698;2023-06-22T15:24:33;21.10;1.00
4813;DHT22;2420;51.202;8.698;2023-06-22T15:26:58;21.00;1.00
4813;DHT22;2420;51.202;8.698;2023-06-22T15:29:24;20.90;1.00
4813;DHT22;2420;51.202;8.698;2023-06-22T15:31:50;20.80;1.00
4813;DHT22;2420;51.202;8.698;2023-06-22T15:34:16;20.70;1.00
4813;DHT22;2420;51.202;8.698;2023-06-22T15:36:42;20.60;1.00
4813;DHT22;2420;51.202;8.698;2023-06-22T15:39:07;20.50;1.00
4813;DHT22;2420;51.202;8.698;2023-06-22T15:41:33;20.30;1.00
4813;DHT22;2420;51.202;8.698;2023-06-22T15:43:58;20.30;1.00
4813;DHT22;2420;51.202;8.698;2023-06-22T15:46:24;20.30;1.00
4813;DHT22;2420;51.202;8.698;2023-06-22T15:48:50;20.30;1.00
4813;DHT22;2420;51.202;8.698;2023-06-22T15:51:15;20.20;1.00
4813;DHT22;2420;51.202;8.698;2023-06-22T15:53:41;20.30;1.00
4813;DHT22;2420;51.202;8.698;2023-06-22T15:56:06;20.20;1.00
4813;DHT22;2420;51.202;8.698;2023-06-22T15:58:35;20.10;1.00
4813;DHT22;2420;51.202;8.698;2023-06-22T16:01:02;20.10;1.00
4813;DHT22;2420;51.202;8.698;2023-06-22T16:03:28;20.00;1.00
4813;DHT22;2420;51.202;8.698;2023-06-22T16:05:54;19.90;1.00
4813;DHT22;2420;51.202;8.698;2023-06-22T16:08:20;19.80;1.00
4813;DHT22;2420;51.202;8.698;2023-06-22T16:10:45;19.80;1.00
4813;DHT22;2420;51.202;8.698;2023-06-22T16:13:11;19.80;1.00
4813;DHT22;2420;51.202;8.698;2023-06-22T16:15:36;19.80;1.00
4813;DHT22;2420;51.202;8.698;2023-06-22T16:18:05;19.80;1.00